Point Vicente — WDB9763 — position and weather

sailwx.info

Track history (hours):
 
Tides and Currents Weather Stations Pressure Air Temp Water Temp Dewpoint Dewpoint Depression Visibility Wind Speed Wind Dir Waves Ship Positions

Point Vicente

Owner: Foss Maritime Company, Seattle, WA. More information available from US FCC via Universal Licensing System and Coast Guard Vessel Documentation Center.

Last reported at 2018-Jan-19 11:08 UTC. Time now 2018-Jan-20 01:10 UTC.
Position N 33°45' W 118°13'.

Length 32 m; draft 4.3 m.

Type: Tug. MMSI: 366982330.

Date/timePositionNaut miles runAvg speedWind from/ knotsBaromVisibWave heightAir tempDewpointWater temp
2018-Jan-19 11:08N 33°45' W 118°13'1 3.2
2018-Jan-19 10:55N 33°46' W 118°13'0 0.0
2018-Jan-19 10:29N 33°46' W 118°13'0 0.0
2018-Jan-19 08:31N 33°46' W 118°13'0 0.0
2018-Jan-19 08:26N 33°46' W 118°13'3 1.8
2018-Jan-19 06:40N 33°43' W 118°15'1 8.4
2018-Jan-19 06:30N 33°44' W 118°16'2 1.4
2018-Jan-19 04:53N 33°46' W 118°16'1 2.0
2018-Jan-19 04:30N 33°46' W 118°17'1 0.1
2018-Jan-18 23:17N 33°46' W 118°16'0 0.3
2018-Jan-18 22:59N 33°46' W 118°16'0 0.3
2018-Jan-18 22:30N 33°46' W 118°16'0 0.2
2018-Jan-18 21:46N 33°46' W 118°16'0 0.0
2018-Jan-18 21:25N 33°46' W 118°16'2 4.7
2018-Jan-18 21:00N 33°44' W 118°16'3 5.1
2018-Jan-18 20:30N 33°44' W 118°13'2 1.5
2018-Jan-18 19:22N 33°46' W 118°13'0 0.0
2018-Jan-18 19:00N 33°46' W 118°13'3 6.9
2018-Jan-18 18:30N 33°43' W 118°15'2 0.2
2018-Jan-18 09:04N 33°45' W 118°16'1 6.4
2018-Jan-18 08:56N 33°44' W 118°16'3 6.5
2018-Jan-18 08:30N 33°44' W 118°13'1 2.5
2018-Jan-18 07:59N 33°46' W 118°13'3 6.0
2018-Jan-18 07:27N 33°43' W 118°15'3 3.0
2018-Jan-18 06:30N 33°46' W 118°16'1 0.6
2018-Jan-18 04:58N 33°45' W 118°16'0 0.4
2018-Jan-18 04:30N 33°45' W 118°16'0 0.4
2018-Jan-18 04:00N 33°45' W 118°16'  
Track history (hours):
 
Tides and Currents Weather Stations Pressure Air Temp Water Temp Dewpoint Dewpoint Depression Visibility Wind Speed Wind Dir Waves Ship Positions

Point Vicente

Owner: Foss Maritime Company, Seattle, WA. More information available from US FCC via Universal Licensing System and Coast Guard Vessel Documentation Center.

Last reported at 2018-Jan-19 11:08 UTC. Time now 2018-Jan-20 01:10 UTC.
Position N 33°45' W 118°13'.

Length 32 m; draft 4.3 m.

Type: Tug. MMSI: 366982330.

Date/timePositionNaut miles runAvg speedWind from/ knotsBaromVisibWave heightAir tempDewpointWater temp
2018-Jan-19 11:08N 33°45' W 118°13'1 3.2
2018-Jan-19 10:55N 33°46' W 118°13'0 0.0
2018-Jan-19 10:29N 33°46' W 118°13'0 0.0
2018-Jan-19 08:31N 33°46' W 118°13'0 0.0
2018-Jan-19 08:26N 33°46' W 118°13'3 1.8
2018-Jan-19 06:40N 33°43' W 118°15'1 8.4
2018-Jan-19 06:30N 33°44' W 118°16'2 1.4
2018-Jan-19 04:53N 33°46' W 118°16'1 2.0
2018-Jan-19 04:30N 33°46' W 118°17'1 0.1
2018-Jan-18 23:17N 33°46' W 118°16'0 0.3
2018-Jan-18 22:59N 33°46' W 118°16'0 0.3
2018-Jan-18 22:30N 33°46' W 118°16'0 0.2
2018-Jan-18 21:46N 33°46' W 118°16'0 0.0
2018-Jan-18 21:25N 33°46' W 118°16'2 4.7
2018-Jan-18 21:00N 33°44' W 118°16'3 5.1
2018-Jan-18 20:30N 33°44' W 118°13'2 1.5
2018-Jan-18 19:22N 33°46' W 118°13'0 0.0
2018-Jan-18 19:00N 33°46' W 118°13'3 6.9
2018-Jan-18 18:30N 33°43' W 118°15'2 0.2
2018-Jan-18 09:04N 33°45' W 118°16'1 6.4
2018-Jan-18 08:56N 33°44' W 118°16'3 6.5
2018-Jan-18 08:30N 33°44' W 118°13'1 2.5
2018-Jan-18 07:59N 33°46' W 118°13'3 6.0
2018-Jan-18 07:27N 33°43' W 118°15'3 3.0
2018-Jan-18 06:30N 33°46' W 118°16'1 0.6
2018-Jan-18 04:58N 33°45' W 118°16'0 0.4
2018-Jan-18 04:30N 33°45' W 118°16'0 0.4
2018-Jan-18 04:00N 33°45' W 118°16'  

Dump ship's entire track history